createdAt,value
2018-12-04T00:01:37.646Z,96.88
2018-12-04T00:04:16.967Z,97.26
2018-12-04T00:06:57.629Z,98.25
2018-12-04T00:09:36.102Z,96.80
2018-12-04T00:12:07.523Z,97.24
2018-12-04T00:14:41.695Z,96.72
2018-12-04T00:17:20.512Z,95.71
2018-12-04T00:19:58.769Z,95.86
2018-12-04T00:22:33.779Z,97.04
2018-12-04T00:25:12.081Z,97.04
2018-12-04T00:30:40.610Z,97.01
2018-12-04T00:33:20.550Z,97.54
2018-12-04T00:36:05.127Z,96.90
2018-12-04T00:38:39.549Z,97.01
2018-12-04T00:41:13.519Z,98.11
2018-12-04T00:49:41.767Z,98.52
2018-12-04T00:52:13.824Z,96.98
2018-12-04T00:54:51.645Z,98.78
2018-12-04T00:57:29.898Z,96.20
2018-12-04T01:00:08.063Z,97.33
2018-12-04T01:05:52.388Z,99.76
2018-12-04T01:08:30.240Z,97.41
2018-12-04T01:11:01.815Z,98.12
2018-12-04T01:13:42.220Z,97.90
2018-12-04T01:16:17.577Z,95.98
2018-12-04T01:18:57.534Z,96.63
2018-12-04T01:21:49.826Z,95.44
2018-12-04T01:24:21.019Z,96.81
2018-12-04T01:26:52.435Z,94.98
2018-12-04T01:29:30.173Z,97.15
2018-12-04T01:32:05.105Z,97.38
2018-12-04T01:34:45.780Z,96.83
2018-12-04T01:37:24.125Z,96.34
2018-12-04T01:40:02.189Z,95.72
2018-12-04T01:45:26.755Z,97.36
2018-12-04T01:47:56.679Z,95.20
2018-12-04T01:50:34.537Z,96.85
2018-12-04T01:53:13.712Z,97.62
2018-12-04T01:55:56.493Z,94.92
2018-12-04T01:58:35.034Z,95.84
2018-12-04T02:01:06.493Z,95.26
2018-12-04T02:03:42.381Z,95.47
2018-12-04T02:06:21.288Z,95.34
2018-12-04T02:09:02.076Z,96.43
2018-12-04T02:11:41.384Z,97.81
2018-12-04T02:14:26.309Z,98.22
2018-12-04T02:17:04.798Z,97.40
2018-12-04T02:19:45.428Z,96.62
2018-12-04T02:22:15.068Z,97.29
2018-12-04T02:24:57.876Z,97.40
2018-12-04T02:27:38.334Z,94.93
2018-12-04T02:30:30.628Z,95.66
2018-12-04T02:38:55.438Z,95.98
2018-12-04T02:41:27.021Z,96.70
2018-12-04T02:43:59.137Z,94.08
2018-12-04T02:46:37.057Z,93.19
2018-12-04T02:52:04.258Z,95.85
2018-12-04T02:54:44.934Z,97.05
2018-12-04T02:57:23.297Z,99.70
2018-12-04T03:00:01.351Z,96.34
2018-12-04T03:02:40.548Z,97.54
2018-12-04T03:05:11.947Z,96.75
2018-12-04T03:07:49.710Z,96.84
2018-12-04T03:10:27.731Z,98.39
2018-12-04T03:13:06.792Z,100.00
2018-12-04T03:15:48.610Z,100.00
2018-12-04T03:18:27.053Z,98.09
2018-12-04T03:20:58.311Z,96.96
2018-12-04T03:23:36.393Z,96.59
2018-12-04T03:26:16.126Z,95.91
2018-12-04T03:28:47.179Z,98.33
2018-12-04T03:31:25.986Z,98.71
2018-12-04T03:34:01.204Z,98.60
2018-12-04T03:36:41.932Z,98.58
2018-12-04T03:39:20.296Z,99.00
2018-12-04T03:42:05.097Z,97.06
2018-12-04T03:47:32.260Z,98.95
2018-12-04T03:50:22.093Z,98.78
2018-12-04T03:53:01.108Z,95.59
2018-12-04T03:55:39.215Z,98.10
2018-12-04T03:58:31.368Z,97.07
2018-12-04T04:01:02.806Z,97.93
2018-12-04T04:03:36.858Z,96.33
2018-12-04T04:06:17.430Z,95.30
2018-12-04T04:09:03.486Z,97.36
2018-12-04T04:14:02.038Z,96.17
2018-12-04T04:16:39.936Z,97.35
2018-12-04T04:19:18.841Z,96.95
2018-12-04T04:21:52.663Z,97.17
2018-12-04T04:24:30.459Z,97.01
2018-12-04T04:27:08.334Z,96.46
2018-12-04T04:29:47.168Z,97.62
2018-12-04T04:32:25.153Z,94.52
2018-12-04T04:35:01.421Z,95.17
2018-12-04T04:37:35.626Z,95.02
2018-12-04T04:40:09.445Z,94.35
2018-12-04T04:42:47.251Z,94.09
2018-12-04T04:48:18.456Z,96.12
2018-12-04T04:50:53.562Z,95.38
2018-12-04T04:53:31.690Z,95.65
2018-12-04T04:56:09.675Z,95.50
2018-12-04T04:58:42.209Z,96.29
2018-12-04T05:01:15.277Z,94.79
2018-12-04T05:04:06.469Z,95.80
2018-12-04T05:06:37.549Z,96.44
2018-12-04T05:09:16.206Z,95.96
2018-12-04T05:11:51.190Z,96.14
2018-12-04T05:14:29.132Z,95.29
2018-12-04T05:17:07.971Z,97.48
2018-12-04T05:19:39.211Z,97.17
2018-12-04T05:22:21.557Z,95.98
2018-12-04T05:25:07.635Z,93.59
2018-12-04T05:27:46.163Z,97.29
2018-12-04T05:30:25.360Z,97.01
2018-12-04T05:32:58.717Z,96.85
2018-12-04T05:38:37.019Z,94.46
2018-12-04T05:41:08.077Z,95.77
2018-12-04T05:43:59.763Z,94.37
2018-12-04T05:46:45.174Z,93.24
2018-12-04T05:49:24.783Z,91.66
2018-12-04T05:51:56.813Z,92.69
2018-12-04T05:54:28.062Z,93.59
2018-12-04T05:57:03.702Z,92.85
2018-12-04T05:59:42.382Z,92.81
2018-12-04T06:02:17.583Z,91.01
2018-12-04T06:07:49.764Z,92.68
2018-12-04T06:10:28.760Z,91.65
2018-12-04T06:13:06.923Z,92.42
2018-12-04T06:15:47.758Z,93.26
2018-12-04T06:18:20.081Z,94.21
2018-12-04T06:21:00.057Z,92.90
2018-12-04T06:23:53.354Z,94.85
2018-12-04T06:26:25.986Z,93.06
2018-12-04T06:28:57.145Z,90.56
2018-12-04T06:31:30.127Z,90.26
2018-12-04T06:34:09.935Z,92.91
2018-12-04T06:36:47.867Z,89.91
2018-12-04T06:39:23.083Z,92.14
2018-12-04T06:44:48.434Z,93.23
2018-12-04T06:47:22.592Z,93.20
2018-12-04T06:50:00.517Z,92.54
2018-12-04T06:52:34.789Z,94.05
2018-12-04T06:55:16.128Z,94.61
2018-12-04T06:58:01.145Z,92.80
2018-12-04T07:00:40.837Z,93.10
2018-12-04T07:03:16.795Z,93.78
2018-12-04T07:05:54.898Z,92.83
2018-12-04T07:08:33.926Z,93.16
2018-12-04T07:11:07.915Z,92.91
2018-12-04T07:13:49.589Z,94.52
2018-12-04T07:16:29.992Z,94.23
2018-12-04T07:21:54.583Z,94.35
2018-12-04T07:24:35.308Z,92.83
2018-12-04T07:27:14.486Z,94.02
2018-12-04T07:32:39.183Z,94.69
2018-12-04T07:35:11.622Z,93.87
2018-12-04T07:37:51.331Z,94.57
2018-12-04T07:40:30.355Z,94.56
2018-12-04T07:43:09.461Z,94.90
2018-12-04T07:45:48.395Z,93.10
2018-12-04T07:48:20.855Z,93.04
2018-12-04T07:50:52.802Z,92.39
2018-12-04T07:56:24.526Z,94.21
2018-12-04T07:59:03.559Z,92.21
2018-12-04T08:04:34.422Z,93.38
2018-12-04T08:07:10.292Z,91.16
2018-12-04T08:09:49.492Z,90.79
2018-12-04T08:12:28.446Z,92.33
2018-12-04T08:15:21.655Z,90.82
2018-12-04T08:18:00.723Z,91.74
2018-12-04T08:20:34.815Z,90.32
2018-12-04T08:23:07.959Z,89.96
2018-12-04T08:25:49.332Z,89.56
2018-12-04T08:28:22.140Z,91.34
2018-12-04T08:30:54.996Z,92.58
2018-12-04T08:33:30.120Z,89.78
2018-12-04T08:36:10.077Z,90.36
2018-12-04T08:38:52.713Z,90.24
2018-12-04T08:41:25.491Z,90.70
2018-12-04T08:44:04.397Z,90.92
2018-12-04T08:46:38.514Z,89.55
2018-12-04T08:49:22.866Z,88.08
2018-12-04T08:51:54.614Z,88.83
2018-12-04T08:54:34.248Z,88.81
2018-12-04T08:57:09.205Z,87.55
2018-12-04T08:59:48.433Z,89.09
2018-12-04T09:02:23.464Z,87.52
2018-12-04T09:05:03.443Z,86.32
2018-12-04T09:07:42.821Z,86.67
2018-12-04T09:10:21.751Z,87.49
2018-12-04T09:12:53.889Z,85.94
2018-12-04T09:15:32.655Z,83.88
2018-12-04T09:18:11.571Z,82.88
2018-12-04T09:20:49.648Z,83.20
2018-12-04T09:23:31.425Z,83.79
2018-12-04T09:26:09.824Z,86.24
2018-12-04T09:28:48.753Z,82.79
2018-12-04T09:31:21.232Z,84.10
2018-12-04T09:34:00.951Z,84.96
2018-12-04T09:36:40.186Z,87.50
2018-12-04T09:39:20.328Z,83.83
2018-12-04T09:41:55.465Z,84.20
2018-12-04T09:44:29.696Z,85.44
2018-12-04T09:47:07.778Z,85.93
2018-12-04T09:49:42.057Z,85.36
2018-12-04T09:52:14.221Z,84.01
2018-12-04T09:54:53.193Z,84.10
2018-12-04T09:57:33.359Z,84.18
2018-12-04T10:00:12.494Z,85.58
2018-12-04T10:02:43.794Z,84.06
2018-12-04T10:05:28.635Z,85.38
2018-12-04T10:08:07.935Z,85.66
2018-12-04T10:10:46.149Z,84.89
2018-12-04T10:13:25.171Z,85.28
2018-12-04T10:15:59.285Z,84.17
2018-12-04T10:18:38.405Z,80.87
2018-12-04T10:21:10.600Z,83.33
2018-12-04T10:23:50.553Z,84.04
2018-12-04T10:26:22.069Z,83.48
2018-12-04T10:28:55.934Z,82.88
2018-12-04T10:31:28.048Z,80.70
2018-12-04T10:34:01.010Z,81.35
2018-12-04T10:36:38.977Z,81.22
2018-12-04T10:39:17.975Z,81.95
2018-12-04T10:41:51.430Z,81.55
2018-12-04T10:44:29.324Z,79.39
2018-12-04T10:47:07.383Z,77.87
2018-12-04T10:49:39.982Z,77.08
2018-12-04T10:52:12.456Z,76.56
2018-12-04T10:54:51.073Z,78.59
2018-12-04T10:57:30.298Z,76.28
2018-12-04T11:00:11.273Z,77.67
2018-12-04T11:02:48.514Z,75.49
2018-12-04T11:05:20.017Z,78.86
2018-12-04T11:07:58.952Z,76.73
2018-12-04T11:13:23.696Z,77.13
2018-12-04T11:16:01.442Z,78.60
2018-12-04T11:21:27.633Z,75.79
2018-12-04T11:24:06.736Z,77.13
2018-12-04T11:26:45.738Z,75.36
2018-12-04T11:29:24.692Z,72.56
2018-12-04T11:32:02.802Z,73.73
2018-12-04T11:34:35.396Z,73.01
2018-12-04T11:37:13.779Z,74.03
2018-12-04T11:39:51.783Z,72.83
2018-12-04T11:42:24.090Z,74.00
2018-12-04T11:45:02.988Z,72.77
2018-12-04T11:47:43.231Z,73.94
2018-12-04T11:50:30.769Z,71.93
2018-12-04T11:53:01.505Z,71.15
2018-12-04T11:55:41.002Z,72.66
2018-12-04T11:58:10.969Z,73.21
2018-12-04T12:00:48.940Z,72.66
2018-12-04T12:03:28.885Z,70.46
2018-12-04T12:06:01.427Z,73.86
2018-12-04T12:11:31.026Z,73.14
2018-12-04T12:14:12.733Z,73.67
2018-12-04T12:16:52.053Z,75.12
2018-12-04T12:19:30.735Z,74.74
2018-12-04T12:22:02.592Z,73.70
2018-12-04T12:24:40.414Z,74.32
2018-12-04T12:27:31.396Z,76.21
2018-12-04T12:30:12.857Z,72.49
2018-12-04T12:32:48.213Z,72.80
2018-12-04T12:35:36.486Z,73.50
2018-12-04T12:38:11.439Z,73.47
2018-12-04T12:40:51.490Z,72.71
2018-12-04T12:43:35.363Z,73.92
2018-12-04T12:46:18.374Z,75.16
2018-12-04T12:48:56.688Z,74.11
2018-12-04T12:51:31.998Z,75.01
2018-12-04T12:54:08.152Z,74.10
2018-12-04T12:56:46.500Z,75.34
2018-12-04T12:59:33.489Z,74.44
2018-12-04T13:02:05.916Z,74.46
2018-12-04T13:04:45.614Z,74.59
2018-12-04T13:07:23.898Z,74.20
2018-12-04T13:10:03.126Z,76.21
2018-12-04T13:12:34.434Z,75.14
2018-12-04T13:15:14.065Z,76.70
2018-12-04T13:17:49.073Z,78.14
2018-12-04T13:20:41.332Z,75.66
2018-12-04T13:23:19.428Z,74.67
2018-12-04T13:25:51.449Z,75.84
2018-12-04T13:28:36.880Z,77.10
2018-12-04T13:31:11.411Z,78.10
2018-12-04T13:33:49.534Z,77.43
2018-12-04T13:36:37.533Z,75.85
2018-12-04T13:39:14.400Z,74.42
2018-12-04T13:41:45.018Z,74.26
2018-12-04T13:44:26.316Z,75.41
2018-12-04T13:46:58.947Z,75.12
2018-12-04T13:49:36.815Z,75.24
2018-12-04T13:52:09.156Z,76.17
2018-12-04T13:54:47.786Z,74.70
2018-12-04T14:00:23.536Z,76.02
2018-12-04T14:02:56.318Z,75.89
2018-12-04T14:05:28.123Z,75.56
2018-12-04T14:07:59.884Z,75.31
2018-12-04T14:13:33.487Z,75.02
2018-12-04T14:16:05.913Z,75.63
2018-12-04T14:18:43.733Z,75.67
2018-12-04T14:21:17.886Z,76.80
2018-12-04T14:23:59.416Z,74.77
2018-12-04T14:26:30.944Z,74.31
2018-12-04T14:29:09.742Z,73.80
2018-12-04T14:31:41.006Z,75.17
2018-12-04T14:34:19.632Z,73.75
2018-12-04T14:36:54.085Z,75.75
2018-12-04T14:39:34.853Z,74.97
2018-12-04T14:42:07.129Z,75.59
2018-12-04T14:44:39.219Z,75.32
2018-12-04T14:47:17.768Z,76.18
2018-12-04T14:49:50.171Z,75.40
2018-12-04T14:52:23.361Z,75.04
2018-12-04T14:55:01.277Z,75.71
2018-12-04T14:57:34.927Z,75.17
2018-12-04T15:00:20.358Z,76.03
2018-12-04T15:02:59.519Z,76.38
2018-12-04T15:05:37.728Z,76.17
2018-12-04T15:08:24.368Z,76.16
2018-12-04T15:11:13.914Z,75.47
2018-12-04T15:13:56.468Z,75.94
2018-12-04T15:16:35.143Z,76.66
2018-12-04T15:19:06.337Z,75.78
2018-12-04T15:21:42.142Z,77.11
2018-12-04T15:24:21.793Z,77.59
2018-12-04T15:27:00.125Z,77.40
2018-12-04T15:29:40.273Z,77.64
2018-12-04T15:32:20.594Z,77.74
2018-12-04T15:34:58.352Z,78.70
2018-12-04T15:37:30.672Z,79.55
2018-12-04T15:40:02.788Z,80.07
2018-12-04T15:42:44.980Z,81.06
2018-12-04T15:45:19.723Z,81.56
2018-12-04T15:47:51.012Z,82.50
2018-12-04T15:50:36.602Z,82.88
2018-12-04T15:53:16.141Z,81.33
2018-12-04T15:58:49.275Z,82.09
2018-12-04T16:01:21.540Z,81.76
2018-12-04T16:04:08.681Z,82.71
2018-12-04T16:06:52.073Z,81.96
2018-12-04T16:09:26.480Z,81.87
2018-12-04T16:12:00.575Z,82.26
2018-12-04T16:14:32.835Z,83.44
2018-12-04T16:17:15.149Z,84.25
2018-12-04T16:19:51.687Z,85.19
2018-12-04T16:22:24.076Z,86.39
2018-12-04T16:25:08.433Z,84.73
2018-12-04T16:27:49.533Z,84.69
2018-12-04T16:33:20.630Z,83.92
2018-12-04T16:36:00.695Z,83.85
2018-12-04T16:38:39.864Z,84.08
2018-12-04T16:41:12.323Z,85.56
2018-12-04T16:43:53.075Z,85.24
2018-12-04T16:46:35.619Z,86.45
2018-12-04T16:49:17.372Z,85.51
2018-12-04T16:51:57.053Z,85.12
2018-12-04T16:54:28.302Z,86.18
2018-12-04T16:56:59.440Z,84.20
2018-12-04T16:59:35.864Z,83.54
2018-12-04T17:02:20.757Z,84.05
2018-12-04T17:05:03.678Z,84.17
2018-12-04T17:07:37.607Z,85.45
2018-12-04T17:10:22.391Z,85.17
2018-12-04T17:13:05.832Z,83.81
2018-12-04T17:18:39.285Z,84.18
2018-12-04T17:21:11.563Z,83.94
2018-12-04T17:23:44.668Z,83.82
2018-12-04T17:26:18.481Z,84.12
2018-12-04T17:31:44.626Z,84.72
2018-12-04T17:34:27.355Z,84.77
2018-12-04T17:37:06.858Z,84.67
2018-12-04T17:39:40.874Z,85.02
2018-12-04T17:42:15.799Z,84.91
2018-12-04T17:44:57.615Z,85.19
2018-12-04T17:47:37.229Z,85.07
2018-12-04T17:53:03.531Z,85.95
2018-12-04T17:55:52.341Z,85.75
2018-12-04T17:58:26.384Z,86.11
2018-12-04T18:04:00.293Z,86.92
2018-12-04T18:06:40.330Z,87.00
2018-12-04T18:09:19.236Z,87.11
2018-12-04T18:11:52.899Z,88.36
2018-12-04T18:14:28.863Z,87.39
2018-12-04T18:19:59.907Z,88.75
2018-12-04T18:22:31.501Z,88.63
2018-12-04T18:25:09.199Z,86.64
2018-12-04T18:27:42.726Z,87.19
2018-12-04T18:33:12.744Z,85.99
2018-12-04T18:35:51.482Z,87.01
2018-12-04T18:38:29.722Z,85.68
2018-12-04T18:41:04.653Z,84.36
2018-12-04T18:43:52.859Z,84.84
2018-12-04T18:46:33.443Z,85.80
2018-12-04T18:49:13.616Z,85.66
2018-12-04T18:51:45.779Z,87.00
2018-12-04T18:54:36.582Z,90.03
2018-12-04T18:57:29.493Z,87.86
2018-12-04T19:00:07.951Z,87.14
2018-12-04T19:02:39.649Z,89.22
2018-12-04T19:05:17.407Z,89.64
2018-12-04T19:07:53.664Z,88.85
2018-12-04T19:10:45.677Z,88.95
2018-12-04T19:13:23.386Z,86.67
2018-12-04T19:16:12.726Z,87.68
2018-12-04T19:18:52.689Z,88.68
2018-12-04T19:21:24.203Z,88.51
2018-12-04T19:24:02.967Z,88.70
2018-12-04T19:26:39.358Z,87.77
2018-12-04T19:29:19.622Z,89.50
2018-12-04T19:31:57.790Z,89.66
2018-12-04T19:34:29.941Z,89.19
2018-12-04T19:37:20.975Z,88.29
2018-12-04T19:39:55.907Z,88.20
2018-12-04T19:45:27.788Z,86.22
2018-12-04T19:48:01.437Z,87.60
2018-12-04T19:50:40.650Z,86.69
2018-12-04T19:53:19.593Z,88.35
2018-12-04T19:56:04.432Z,88.86
2018-12-04T19:58:37.282Z,87.71
2018-12-04T20:01:10.165Z,88.55
2018-12-04T20:03:41.442Z,87.76
2018-12-04T20:06:13.138Z,86.44
2018-12-04T20:08:54.543Z,87.60
2018-12-04T20:11:28.925Z,87.50
2018-12-04T20:14:13.416Z,88.72
2018-12-04T20:16:51.963Z,89.12
2018-12-04T20:19:31.990Z,88.21
2018-12-04T20:22:04.571Z,87.99
2018-12-04T20:24:45.292Z,88.82
2018-12-04T20:27:24.232Z,88.03
2018-12-04T20:30:04.443Z,88.89
2018-12-04T20:32:38.688Z,88.28
2018-12-04T20:35:13.414Z,89.49
2018-12-04T20:37:51.525Z,89.32
2018-12-04T20:40:31.679Z,88.20
2018-12-04T20:43:08.024Z,89.02
2018-12-04T20:45:53.558Z,88.97
2018-12-04T20:48:32.256Z,89.34
2018-12-04T20:51:04.484Z,90.56
2018-12-04T20:53:42.455Z,90.30
2018-12-04T20:56:27.103Z,90.09
2018-12-04T20:58:56.966Z,89.67
2018-12-04T21:01:28.329Z,89.77
2018-12-04T21:04:08.024Z,89.50
2018-12-04T21:06:47.062Z,91.00
2018-12-04T21:09:26.213Z,89.87
2018-12-04T21:11:57.533Z,89.13
2018-12-04T21:14:35.506Z,89.63
2018-12-04T21:17:15.732Z,88.57
2018-12-04T21:19:49.280Z,89.47
2018-12-04T21:22:21.414Z,89.14
2018-12-04T21:25:01.446Z,89.72
2018-12-04T21:27:45.947Z,87.83
2018-12-04T21:30:36.478Z,89.32
2018-12-04T21:36:50.120Z,89.55
2018-12-04T21:39:36.056Z,88.84
2018-12-04T21:45:35.058Z,88.40
2018-12-04T21:48:15.397Z,90.01
2018-12-04T21:53:56.408Z,89.40
2018-12-04T21:56:36.617Z,88.57
2018-12-04T21:59:14.611Z,88.05
2018-12-04T22:02:01.804Z,87.18
2018-12-04T22:04:44.538Z,87.90
2018-12-04T22:07:23.802Z,90.08
2018-12-04T22:10:02.642Z,88.06
2018-12-04T22:12:34.834Z,89.20
2018-12-04T22:15:20.166Z,89.29
2018-12-04T22:18:05.221Z,88.92
2018-12-04T22:20:52.470Z,89.55
2018-12-04T22:23:31.894Z,88.89
2018-12-04T22:26:11.111Z,90.09
2018-12-04T22:29:00.359Z,88.91
2018-12-04T22:31:33.624Z,90.44
2018-12-04T22:34:09.229Z,90.52
2018-12-04T22:36:56.166Z,90.74
2018-12-04T22:39:30.813Z,90.98
2018-12-04T22:42:04.977Z,90.86
2018-12-04T22:44:40.882Z,90.51
2018-12-04T22:47:19.896Z,90.37
2018-12-04T22:52:47.682Z,91.28
2018-12-04T22:58:21.456Z,92.68
2018-12-04T23:01:09.588Z,93.87
2018-12-04T23:03:56.128Z,92.46
2018-12-04T23:06:34.567Z,92.12
2018-12-04T23:09:12.855Z,90.32
2018-12-04T23:11:45.811Z,92.11
2018-12-04T23:14:22.109Z,92.47
2018-12-04T23:17:01.222Z,91.48
2018-12-04T23:19:46.018Z,92.15
2018-12-04T23:22:22.276Z,92.29
2018-12-04T23:25:07.913Z,92.55
2018-12-04T23:27:38.777Z,91.56
2018-12-04T23:30:10.924Z,93.08
2018-12-04T23:32:44.093Z,93.07
2018-12-04T23:35:22.713Z,92.95
2018-12-04T23:37:55.057Z,94.32
2018-12-04T23:43:22.097Z,94.16
2018-12-04T23:46:06.909Z,93.87
2018-12-04T23:48:46.178Z,94.44
2018-12-04T23:51:25.329Z,95.43
2018-12-04T23:54:03.180Z,94.50
2018-12-04T23:56:41.290Z,96.33
2018-12-04T23:59:34.360Z,94.98
